Time;durP1;ratioP1;P1;durP2;ratioP2;P2;SDS_P1;SDS_P2;PMS_P1;PMS_P2;Temp;Humidity;BMP_temperature;BMP_pressure;BME280_temperature;BME280_humidity;BME280_pressure;Samples;Min_cycle;Max_cycle;Signal;HPM_P1;HPM_P2
2023/04/21 00:03:07;;;;;;;;;;;;;;;2.05;100.00;97236.28;18294797;32;19953;-59
2023/04/21 00:13:09;;;;;;;;;;;;;;;1.95;100.00;97231.50;18294307;32;19988;-59
2023/04/21 00:23:12;;;;;;;;;;;;;;;1.91;100.00;97228.44;18293924;32;20046;-59
2023/04/21 00:33:14;;;;;;;;;;;;;;;1.78;100.00;97221.44;18293452;32;19980;-59
2023/04/21 00:43:16;;;;;;;;;;;;;;;1.64;100.00;97202.13;18278828;32;19949;-59
2023/04/21 00:53:19;;;;;;;;;;;;;;;1.51;100.00;97199.62;18300715;32;19954;-59
2023/04/21 01:03:21;;;;;;;;;;;;;;;1.37;100.00;97188.31;18303204;32;19974;-59
2023/04/21 01:13:24;;;;;;;;;;;;;;;1.21;100.00;97176.41;18302736;32;19957;-59
2023/04/21 01:23:26;;;;;;;;;;;;;;;1.08;100.00;97185.34;18302413;32;20296;-59
2023/04/21 01:33:28;;;;;;;;;;;;;;;1.01;100.00;97188.09;18301811;32;19941;-59
2023/04/21 01:43:31;;;;;;;;;;;;;;;0.95;100.00;97194.28;18301031;32;20059;-59
2023/04/21 01:53:33;;;;;;;;;;;;;;;0.82;100.00;97191.75;18300701;32;20005;-59
2023/04/21 02:03:35;;;;;;;;;;;;;;;0.77;100.00;97188.94;18299644;32;20016;-59
2023/04/21 02:13:38;;;;;;;;;;;;;;;0.71;100.00;97189.81;18286197;32;19950;-59
2023/04/21 02:23:40;;;;;;;;;;;;;;;0.67;100.00;97192.06;18299156;32;19987;-59
2023/04/21 02:33:42;;;;;;;;;;;;;;;0.62;100.00;97206.03;18298543;32;19945;-59
2023/04/21 02:43:45;;;;;;;;;;;;;;;0.54;100.00;97193.00;18297834;32;19980;-59
2023/04/21 02:53:47;;;;;;;;;;;;;;;0.43;100.00;97191.88;18283966;32;19986;-59
2023/04/21 03:03:49;;;;;;;;;;;;;;;0.37;100.00;97200.72;18297519;32;19954;-59
2023/04/21 03:13:51;;;;;;;;;;;;;;;0.39;100.00;97190.66;18295790;32;20275;-59
2023/04/21 03:23:54;;;;;;;;;;;;;;;0.40;100.00;97196.78;18282785;32;19945;-59
2023/04/21 03:33:56;;;;;;;;;;;;;;;0.42;100.00;97200.06;18257035;32;19964;-59
2023/04/21 03:43:58;;;;;;;;;;;;;;;0.35;100.00;97199.31;18295343;32;19968;-59
2023/04/21 03:54:00;;;;;;;;;;;;;;;0.29;100.00;97195.66;18295055;32;19992;-59
2023/04/21 04:04:03;;;;;;;;;;;;;;;0.28;100.00;97194.03;18294888;32;20005;-59
2023/04/21 04:14:05;;;;;;;;;;;;;;;0.27;100.00;97193.19;18294006;32;19954;-58
2023/04/21 04:24:09;;;;;;;;;;;;;;;0.24;100.00;97192.84;18297706;32;19964;-59
2023/04/21 04:34:12;;;;;;;;;;;;;;;0.15;100.00;97206.38;18304653;32;20287;-59
2023/04/21 04:44:16;;;;;;;;;;;;;;;0.21;100.00;97196.75;18303964;32;19985;-59
2023/04/21 04:54:19;;;;;;;;;;;;;;;0.63;100.00;97206.84;18303786;32;20009;-59
2023/04/21 05:04:22;;;;;;;;;;;;;;;0.95;100.00;97217.44;18303117;32;19953;-59
2023/04/21 05:14:25;;;;;;;;;;;;;;;1.42;100.00;97208.97;18302685;32;19984;-59
2023/04/21 05:24:27;;;;;;;;;;;;;;;1.56;100.00;97218.41;18302808;32;19972;-59
2023/04/21 05:34:30;;;;;;;;;;;;;;;1.67;100.00;97236.34;18300965;32;19977;-59
2023/04/21 05:44:32;;;;;;;;;;;;;;;1.96;100.00;97251.75;18300844;32;19981;-59
2023/04/21 05:54:34;;;;;;;;;;;;;;;2.37;100.00;97247.50;18286834;32;19957;-59
2023/04/21 06:04:37;;;;;;;;;;;;;;;2.82;100.00;97244.38;18299732;32;20361;-59
2023/04/21 06:14:40;;;;;;;;;;;;;;;3.27;100.00;97240.31;18286414;32;19971;-59
2023/04/21 06:24:42;;;;;;;;;;;;;;;3.72;100.00;97226.28;18299410;32;19946;-59
2023/04/21 06:34:44;;;;;;;;;;;;;;;4.14;100.00;97235.94;18272118;32;20275;-59
2023/04/21 06:44:47;;;;;;;;;;;;;;;4.54;100.00;97240.38;18298138;32;19980;-59
2023/04/21 06:54:52;;;;;;;;;;;;;;;4.97;100.00;97246.16;18297675;32;19946;-59
2023/04/21 07:04:54;;;;;;;;;;;;;;;5.40;100.00;97247.34;18297617;32;19997;-59
2023/04/21 07:14:57;;;;;;;;;;;;;;;5.78;100.00;97234.13;18296740;32;20009;-59
2023/04/21 07:24:59;;;;;;;;;;;;;;;6.20;100.00;97213.97;18296321;32;19949;-59
2023/04/21 07:35:02;;;;;;;;;;;;;;;6.64;100.00;97183.50;18281726;32;20010;-60
2023/04/21 07:45:04;;;;;;;;;;;;;;;7.14;100.00;97176.88;18295158;32;20262;-59
2023/04/21 07:55:07;;;;;;;;;;;;;;;7.75;100.00;97170.16;18280695;32;19949;-59
2023/04/21 08:05:09;;;;;;;;;;;;;;;8.25;100.00;97165.16;18315124;32;20027;-59
2023/04/21 08:15:12;;;;;;;;;;;;;;;8.42;100.00;97154.94;18315283;32;20336;-59
2023/04/21 08:25:15;;;;;;;;;;;;;;;9.19;100.00;97150.59;18300887;32;19989;-59
2023/04/21 08:35:17;;;;;;;;;;;;;;;9.63;100.00;97149.91;18288159;32;19946;-59
2023/04/21 08:45:20;;;;;;;;;;;;;;;9.99;100.00;97147.84;18313970;32;19995;-59
2023/04/21 08:55:26;;;;;;;;;;;;;;;10.33;100.00;97141.69;18299785;32;19968;-59
2023/04/21 09:05:29;;;;;;;;;;;;;;;11.01;100.00;97160.88;18313529;32;20332;-59
2023/04/21 09:15:37;;;;;;;;;;;;;;;11.97;100.00;97162.78;18289993;32;19960;-59
2023/04/21 09:25:41;;;;;;;;;;;;;;;12.39;94.67;97154.91;18302410;32;20321;-60
2023/04/21 09:35:43;;;;;;;;;;;;;;;12.44;97.29;97167.56;18301459;32;20013;-60
2023/04/21 09:45:46;;;;;;;;;;;;;;;12.44;96.55;97175.69;18300921;32;20284;-59
2023/04/21 09:55:50;;;;;;;;;;;;;;;12.13;96.57;97168.03;18300622;32;19984;-59
2023/04/21 10:05:54;;;;;;;;;;;;;;;12.62;94.55;97168.63;18300288;32;19950;-59
2023/04/21 10:16:02;;;;;;;;;;;;;;;13.10;89.14;97154.81;18300592;32;19979;-60
2023/04/21 10:26:07;;;;;;;;;;;;;;;13.83;86.59;97168.66;18298918;32;19941;-59
2023/04/21 10:36:11;;;;;;;;;;;;;;;14.01;74.50;97169.62;18298778;32;19965;-59
2023/04/21 10:46:33;;;;;;;;;;;;;;;13.85;76.43;97147.44;18298418;32;19983;-59
2023/04/21 10:56:36;;;;;;;;;;;;;;;13.85;80.82;97146.59;18297587;32;19983;-59
2023/04/21 11:06:40;;;;;;;;;;;;;;;13.83;78.51;97144.19;18297524;32;20351;-57
2023/04/21 11:16:43;;;;;;;;;;;;;;;13.18;88.44;97142.44;18282920;32;20004;-57
2023/04/21 11:26:46;;;;;;;;;;;;;;;13.88;84.74;97143.28;18282153;32;19945;-58
2023/04/21 11:36:48;;;;;;;;;;;;;;;13.92;85.52;97152.44;18281222;32;20364;-57
2023/04/21 11:46:50;;;;;;;;;;;;;;;14.03;91.04;97161.16;18295205;32;19953;-57
2023/04/21 11:56:53;;;;;;;;;;;;;;;14.65;86.73;97170.69;18281878;32;19960;-57
2023/04/21 12:06:59;;;;;;;;;;;;;;;15.43;81.19;97151.31;18280905;32;19957;-57
2023/04/21 12:17:01;;;;;;;;;;;;;;;15.96;74.79;97157.72;18294041;32;19980;-57
2023/04/21 12:27:05;;;;;;;;;;;;;;;15.82;75.69;97152.41;18294149;32;19953;-57
2023/04/21 12:37:07;;;;;;;;;;;;;;;15.23;75.82;97158.09;18293216;32;19985;-58
2023/04/21 12:47:10;;;;;;;;;;;;;;;14.68;79.93;97170.09;18298739;32;19937;-58
2023/04/21 12:57:14;;;;;;;;;;;;;;;14.37;84.65;97184.38;18303944;32;20313;-57
2023/04/21 13:07:20;;;;;;;;;;;;;;;14.31;81.86;97182.88;18303268;32;19950;-58
2023/04/21 13:17:22;;;;;;;;;;;;;;;13.94;87.68;97184.75;18302685;32;20021;-57
2023/04/21 13:27:28;;;;;;;;;;;;;;;13.70;92.38;97175.72;18302568;32;19972;-57
2023/04/21 13:37:30;;;;;;;;;;;;;;;13.35;96.64;97164.44;18287953;32;20017;-57
2023/04/21 13:47:33;;;;;;;;;;;;;;;13.83;94.34;97144.19;18286887;32;19997;-57
2023/04/21 13:57:36;;;;;;;;;;;;;;;14.12;92.01;97159.34;18285926;32;19949;-57
2023/04/21 14:07:38;;;;;;;;;;;;;;;13.59;98.17;97122.69;18299975;32;20269;-57
2023/04/21 14:17:41;;;;;;;;;;;;;;;13.44;100.00;97123.00;18299839;32;19997;-57
2023/04/21 14:27:44;;;;;;;;;;;;;;;13.18;100.00;97116.12;18285430;32;19941;-58
2023/04/21 14:37:46;;;;;;;;;;;;;;;13.00;100.00;97119.72;18299120;32;19960;-57
2023/04/21 14:47:49;;;;;;;;;;;;;;;12.79;100.00;97111.94;18298001;32;19953;-57
2023/04/21 14:57:52;;;;;;;;;;;;;;;12.72;100.00;97103.38;18297761;32;20564;-57
2023/04/21 15:07:55;;;;;;;;;;;;;;;12.69;100.00;97088.50;18296949;32;19986;-57
2023/04/21 15:17:57;;;;;;;;;;;;;;;12.67;100.00;97090.69;18283212;32;19957;-57
2023/04/21 15:28:00;;;;;;;;;;;;;;;12.46;100.00;97089.47;18296956;32;19972;-57
2023/04/21 15:38:03;;;;;;;;;;;;;;;12.50;100.00;97098.63;18295797;32;19976;-57
2023/04/21 15:48:05;;;;;;;;;;;;;;;12.53;100.00;97085.25;18280943;32;19950;-57
2023/04/21 15:58:12;;;;;;;;;;;;;;;12.56;100.00;97096.63;18280345;32;20348;-57
2023/04/21 16:08:15;;;;;;;;;;;;;;;12.49;100.00;97088.84;18294181;32;20355;-57
2023/04/21 16:18:17;;;;;;;;;;;;;;;12.35;100.00;97105.09;18296529;32;19946;-57
2023/04/21 16:28:20;;;;;;;;;;;;;;;12.27;100.00;97084.06;18305250;32;20286;-58
2023/04/21 16:38:23;;;;;;;;;;;;;;;12.32;100.00;97073.94;18304710;32;20299;-57
2023/04/21 16:48:25;;;;;;;;;;;;;;;12.35;100.00;97084.19;18304172;32;20261;-57
2023/04/21 16:58:29;;;;;;;;;;;;;;;12.32;100.00;97071.22;18303645;32;19946;-57
2023/04/21 17:08:31;;;;;;;;;;;;;;;12.23;100.00;97053.22;18303208;32;19946;-57
2023/04/21 17:18:34;;;;;;;;;;;;;;;12.05;100.00;97050.25;18302823;32;19964;-58
2023/04/21 17:28:37;;;;;;;;;;;;;;;11.82;100.00;97060.84;18301543;32;19941;-57
2023/04/21 17:38:41;;;;;;;;;;;;;;;11.61;100.00;97043.28;18301614;32;20295;-58
2023/04/21 17:48:44;;;;;;;;;;;;;;;11.32;100.00;97034.19;18301213;32;20342;-57
2023/04/21 17:58:47;;;;;;;;;;;;;;;11.06;100.00;97039.09;18287076;32;19975;-57
2023/04/21 18:08:49;;;;;;;;;;;;;;;10.80;100.00;97062.91;18300734;32;19950;-57
2023/04/21 18:18:52;;;;;;;;;;;;;;;10.55;100.00;97050.44;18299860;32;19946;-57
2023/04/21 18:28:57;;;;;;;;;;;;;;;10.29;100.00;97053.34;18285220;32;20050;-57
2023/04/21 18:38:59;;;;;;;;;;;;;;;10.00;100.00;97048.69;18285548;32;19941;-57
2023/04/21 18:49:02;;;;;;;;;;;;;;;9.71;100.00;97060.22;18297661;32;19963;-57
2023/04/21 18:59:04;;;;;;;;;;;;;;;9.49;100.00;97066.81;18297834;32;19965;-57
2023/04/21 19:09:06;;;;;;;;;;;;;;;9.39;100.00;97074.97;18297310;32;19945;-57
2023/04/21 19:19:09;;;;;;;;;;;;;;;9.29;100.00;97069.63;18296806;32;19976;-57
2023/04/21 19:29:13;;;;;;;;;;;;;;;9.11;100.00;97076.44;18296644;32;19972;-57
2023/04/21 19:39:16;;;;;;;;;;;;;;;9.00;100.00;97078.34;18295817;32;19948;-57
2023/04/21 19:49:18;;;;;;;;;;;;;;;8.94;100.00;97079.47;18295310;32;20377;-57
2023/04/21 19:59:21;;;;;;;;;;;;;;;8.86;100.00;97077.31;18294593;32;20284;-57
2023/04/21 20:09:23;;;;;;;;;;;;;;;8.78;100.00;97082.19;18294910;32;20017;-57
2023/04/21 20:19:25;;;;;;;;;;;;;;;8.72;100.00;97085.97;18294483;32;19960;-57
2023/04/21 20:29:28;;;;;;;;;;;;;;;8.58;100.00;97095.72;18280037;32;20384;-57
2023/04/21 20:39:31;;;;;;;;;;;;;;;8.46;100.00;97077.13;18293773;32;19974;-57
2023/04/21 20:49:33;;;;;;;;;;;;;;;8.37;100.00;97066.03;18228756;32;19988;-57
2023/04/21 20:59:36;;;;;;;;;;;;;;;8.42;100.00;97051.75;18229868;32;20005;-57
2023/04/21 21:09:40;;;;;;;;;;;;;;;8.36;100.00;97063.59;18236967;32;20265;-57
2023/04/21 21:19:42;;;;;;;;;;;;;;;8.26;100.00;97072.50;18239626;32;19990;-57
2023/04/21 21:29:45;;;;;;;;;;;;;;;8.09;100.00;97070.88;18239065;32;19973;-57
2023/04/21 21:39:47;;;;;;;;;;;;;;;8.00;100.00;97074.37;18238806;32;19973;-57
2023/04/21 21:49:53;;;;;;;;;;;;;;;7.88;100.00;97074.63;18291891;32;20037;-57
2023/04/21 21:59:55;;;;;;;;;;;;;;;7.79;100.00;97067.06;18301009;32;19969;-57
2023/04/21 22:09:58;;;;;;;;;;;;;;;7.75;100.00;97065.19;18300564;32;19957;-57
2023/04/21 22:20:06;;;;;;;;;;;;;;;7.73;100.00;97057.41;18299138;32;19969;-57
2023/04/21 22:30:10;;;;;;;;;;;;;;;7.63;100.00;97074.31;18299452;32;20005;-57
2023/04/21 22:40:12;;;;;;;;;;;;;;;7.54;100.00;97072.44;18298824;32;19976;-57
2023/04/21 22:50:15;;;;;;;;;;;;;;;7.43;100.00;97069.69;18298290;32;19990;-57
2023/04/21 23:00:17;;;;;;;;;;;;;;;7.31;100.00;97073.69;18297846;32;20000;-57
2023/04/21 23:10:21;;;;;;;;;;;;;;;7.19;100.00;97068.53;18283797;32;20028;-57
2023/04/21 23:20:23;;;;;;;;;;;;;;;7.08;100.00;97063.09;18296749;32;20040;-57
2023/04/21 23:30:26;;;;;;;;;;;;;;;7.02;100.00;97058.78;18296723;32;19988;-57
2023/04/21 23:40:28;;;;;;;;;;;;;;;6.89;100.00;97043.13;18282400;32;20276;-57
2023/04/21 23:50:30;;;;;;;;;;;;;;;6.78;100.00;97043.09;18231515;32;19984;-57
